createdAt,value
2018-12-27T00:01:22.569Z,4.90
2018-12-27T00:03:50.801Z,5.00
2018-12-27T00:06:18.293Z,5.00
2018-12-27T00:08:45.854Z,5.20
2018-12-27T00:11:13.335Z,5.10
2018-12-27T00:13:41.632Z,5.10
2018-12-27T00:16:09.964Z,5.10
2018-12-27T00:18:37.466Z,5.10
2018-12-27T00:21:05.694Z,5.10
2018-12-27T00:23:33.165Z,5.10
2018-12-27T00:26:00.645Z,5.10
2018-12-27T00:28:28.106Z,5.10
2018-12-27T00:30:55.584Z,5.00
2018-12-27T00:33:23.045Z,5.00
2018-12-27T00:35:50.497Z,5.00
2018-12-27T00:38:17.988Z,5.00
2018-12-27T00:40:46.251Z,5.10
2018-12-27T00:43:13.689Z,5.10
2018-12-27T00:48:21.477Z,5.00
2018-12-27T00:50:48.946Z,4.90
2018-12-27T00:53:16.433Z,4.90
2018-12-27T00:55:43.895Z,4.90
2018-12-27T00:58:11.469Z,4.90
2018-12-27T01:00:38.947Z,5.00
2018-12-27T01:03:11.167Z,5.00
2018-12-27T01:05:34.769Z,4.90
2018-12-27T01:08:02.240Z,4.90
2018-12-27T01:10:29.700Z,4.80
2018-12-27T01:12:57.156Z,4.80
2018-12-27T01:15:24.633Z,4.80
2018-12-27T01:17:52.112Z,4.80
2018-12-27T01:20:20.367Z,5.00
2018-12-27T01:22:47.828Z,5.00
2018-12-27T01:25:16.117Z,5.00
2018-12-27T01:27:43.588Z,5.00
2018-12-27T01:30:11.858Z,5.00
2018-12-27T01:32:39.329Z,5.00
2018-12-27T01:35:07.584Z,5.00
2018-12-27T01:37:35.037Z,5.00
2018-12-27T01:40:02.508Z,5.10
2018-12-27T01:42:30.080Z,5.00
2018-12-27T01:44:57.635Z,4.90
2018-12-27T01:47:26.444Z,4.80
2018-12-27T01:49:53.992Z,4.70
2018-12-27T01:52:22.222Z,5.00
2018-12-27T01:54:49.697Z,5.00
2018-12-27T01:57:17.198Z,4.80
2018-12-27T01:59:44.665Z,4.70
2018-12-27T02:02:12.126Z,4.70
2018-12-27T02:04:39.603Z,4.70
2018-12-27T02:07:07.061Z,4.80
2018-12-27T02:09:34.515Z,4.90
2018-12-27T02:12:02.001Z,4.80
2018-12-27T02:14:30.235Z,4.80
2018-12-27T02:16:57.681Z,4.70
2018-12-27T02:19:25.174Z,4.60
2018-12-27T02:21:52.639Z,4.80
2018-12-27T02:24:20.102Z,4.80
2018-12-27T02:26:47.565Z,4.90
2018-12-27T02:29:15.129Z,4.70
2018-12-27T02:31:42.605Z,4.70
2018-12-27T02:34:10.870Z,4.80
2018-12-27T02:36:38.349Z,4.70
2018-12-27T02:39:06.577Z,4.50
2018-12-27T02:41:34.026Z,4.50
2018-12-27T02:44:01.496Z,4.70
2018-12-27T02:46:28.978Z,4.70
2018-12-27T02:48:56.442Z,4.80
2018-12-27T02:51:23.906Z,4.80
2018-12-27T02:53:51.379Z,4.80
2018-12-27T02:56:18.865Z,4.80
2018-12-27T02:58:46.334Z,4.70
2018-12-27T03:01:15.608Z,4.70
2018-12-27T03:03:44.049Z,4.70
2018-12-27T03:06:11.427Z,4.70
2018-12-27T03:08:38.899Z,4.70
2018-12-27T03:11:06.621Z,4.60
2018-12-27T03:13:34.097Z,4.70
2018-12-27T03:16:01.557Z,4.70
2018-12-27T03:18:29.001Z,4.80
2018-12-27T03:20:56.462Z,4.80
2018-12-27T03:23:24.804Z,4.70
2018-12-27T03:25:52.373Z,4.60
2018-12-27T03:28:19.842Z,4.70
2018-12-27T03:30:47.391Z,4.70
2018-12-27T03:33:14.963Z,4.80
2018-12-27T03:35:42.523Z,4.70
2018-12-27T03:38:09.984Z,4.70
2018-12-27T03:40:37.442Z,4.70
2018-12-27T03:43:04.931Z,4.70
2018-12-27T03:45:33.197Z,4.70
2018-12-27T03:48:00.665Z,4.70
2018-12-27T03:50:28.926Z,4.70
2018-12-27T03:52:56.635Z,4.70
2018-12-27T03:55:24.867Z,4.80
2018-12-27T03:57:52.353Z,4.80
2018-12-27T04:00:19.814Z,4.70
2018-12-27T04:02:47.374Z,4.60
2018-12-27T04:05:14.867Z,4.50
2018-12-27T04:07:43.083Z,4.60
2018-12-27T04:10:10.544Z,4.60
2018-12-27T04:12:38.009Z,4.60
2018-12-27T04:15:05.789Z,4.40
2018-12-27T04:17:33.266Z,4.40
2018-12-27T04:20:00.736Z,4.70
2018-12-27T04:22:28.206Z,4.70
2018-12-27T04:24:56.459Z,4.30
2018-12-27T04:27:24.030Z,4.30
2018-12-27T04:29:52.268Z,4.30
2018-12-27T04:32:19.737Z,4.30
2018-12-27T04:34:47.661Z,4.60
2018-12-27T04:37:15.210Z,4.50
2018-12-27T04:39:42.784Z,4.50
2018-12-27T04:42:10.343Z,4.40
2018-12-27T04:44:37.951Z,4.30
2018-12-27T04:47:05.483Z,4.20
2018-12-27T04:49:32.937Z,4.40
2018-12-27T04:52:00.494Z,4.30
2018-12-27T04:54:27.970Z,4.20
2018-12-27T04:56:56.239Z,4.10
2018-12-27T04:59:23.792Z,4.10
2018-12-27T05:01:51.354Z,4.00
2018-12-27T05:04:18.814Z,4.00
2018-12-27T05:06:46.383Z,4.10
2018-12-27T05:09:13.857Z,4.20
2018-12-27T05:11:41.315Z,4.40
2018-12-27T05:14:08.867Z,4.20
2018-12-27T05:16:36.335Z,4.40
2018-12-27T05:19:04.726Z,4.20
2018-12-27T05:21:32.287Z,4.20
2018-12-27T05:23:59.750Z,4.30
2018-12-27T05:26:28.007Z,4.30
2018-12-27T05:28:55.482Z,4.30
2018-12-27T05:31:23.050Z,4.30
2018-12-27T05:33:51.328Z,4.30
2018-12-27T05:36:18.840Z,4.30
2018-12-27T05:38:46.300Z,4.30
2018-12-27T05:41:14.513Z,4.30
2018-12-27T05:43:41.988Z,4.30
2018-12-27T05:46:09.544Z,4.20
2018-12-27T05:48:37.026Z,4.30
2018-12-27T05:51:05.301Z,4.10
2018-12-27T05:53:32.758Z,4.10
2018-12-27T05:56:00.234Z,4.10
2018-12-27T05:58:28.497Z,4.40
2018-12-27T06:00:56.395Z,4.30
2018-12-27T06:03:23.937Z,4.40
2018-12-27T06:05:51.415Z,4.40
2018-12-27T06:08:19.015Z,4.40
2018-12-27T06:10:46.530Z,4.40
2018-12-27T06:13:13.981Z,4.20
2018-12-27T06:15:41.451Z,4.10
2018-12-27T06:18:09.019Z,4.30
2018-12-27T06:20:36.479Z,4.50
2018-12-27T06:23:05.448Z,4.60
2018-12-27T06:25:32.945Z,4.60
2018-12-27T06:28:00.413Z,4.30
2018-12-27T06:30:27.877Z,4.20
2018-12-27T06:32:55.334Z,4.20
2018-12-27T06:35:23.610Z,4.10
2018-12-27T06:37:51.176Z,4.10
2018-12-27T06:40:18.685Z,4.10
2018-12-27T06:42:48.056Z,4.00
2018-12-27T06:45:15.601Z,4.00
2018-12-27T06:47:43.875Z,4.10
2018-12-27T06:50:11.454Z,4.10
2018-12-27T06:52:39.723Z,4.10
2018-12-27T06:55:07.293Z,4.00
2018-12-27T06:57:36.274Z,3.80
2018-12-27T07:00:05.346Z,3.80
2018-12-27T07:02:32.015Z,4.00
2018-12-27T07:04:59.494Z,4.00
2018-12-27T07:07:26.965Z,4.00
2018-12-27T07:09:55.232Z,4.00
2018-12-27T07:12:22.702Z,4.00
2018-12-27T07:14:50.250Z,4.00
2018-12-27T07:17:17.723Z,3.90
2018-12-27T07:19:45.282Z,3.80
2018-12-27T07:22:12.863Z,3.90
2018-12-27T07:24:41.090Z,3.70
2018-12-27T07:27:08.577Z,3.60
2018-12-27T07:29:36.037Z,4.00
2018-12-27T07:32:04.819Z,3.90
2018-12-27T07:34:32.298Z,3.90
2018-12-27T07:36:59.777Z,3.90
2018-12-27T07:39:27.234Z,3.70
2018-12-27T07:41:54.692Z,3.70
2018-12-27T07:44:22.247Z,3.70
2018-12-27T07:46:49.716Z,3.60
2018-12-27T07:49:17.276Z,3.60
2018-12-27T07:51:44.754Z,3.60
2018-12-27T07:54:12.215Z,3.70
2018-12-27T07:56:39.778Z,4.00
2018-12-27T07:59:07.247Z,3.90
2018-12-27T08:01:34.707Z,3.60
2018-12-27T08:04:02.176Z,3.50
2018-12-27T08:06:30.416Z,3.50
2018-12-27T08:08:57.872Z,3.50
2018-12-27T08:11:25.354Z,3.40
2018-12-27T08:13:52.913Z,3.40
2018-12-27T08:16:20.490Z,3.40
2018-12-27T08:18:48.713Z,3.60
2018-12-27T08:21:16.190Z,3.60
2018-12-27T08:23:43.655Z,3.60
2018-12-27T08:26:11.113Z,3.60
2018-12-27T08:28:38.581Z,3.80
2018-12-27T08:31:06.328Z,3.60
2018-12-27T08:33:33.784Z,3.50
2018-12-27T08:36:01.242Z,3.50
2018-12-27T08:38:28.743Z,3.60
2018-12-27T08:40:56.195Z,3.70
2018-12-27T08:43:23.645Z,3.50
2018-12-27T08:45:51.181Z,3.60
2018-12-27T08:48:19.440Z,3.30
2018-12-27T08:50:46.915Z,3.30
2018-12-27T08:53:15.177Z,3.40
2018-12-27T08:55:42.744Z,3.40
2018-12-27T08:58:10.295Z,3.30
2018-12-27T09:00:37.765Z,3.30
2018-12-27T09:03:05.246Z,3.50
2018-12-27T09:05:32.793Z,3.80
2018-12-27T09:08:00.280Z,3.80
2018-12-27T09:10:28.545Z,3.70
2018-12-27T09:12:56.009Z,3.70
2018-12-27T09:15:24.270Z,3.90
2018-12-27T09:17:51.726Z,3.80
2018-12-27T09:20:19.205Z,3.90
2018-12-27T09:22:47.497Z,3.90
2018-12-27T09:25:15.765Z,3.90
2018-12-27T09:27:43.250Z,3.80
2018-12-27T09:30:11.495Z,4.00
2018-12-27T09:32:39.057Z,3.90
2018-12-27T09:35:06.521Z,3.90
2018-12-27T09:37:34.114Z,3.90
2018-12-27T09:40:01.657Z,4.00
2018-12-27T09:42:30.980Z,4.10
2018-12-27T09:44:58.508Z,4.10
2018-12-27T09:47:25.998Z,4.20
2018-12-27T09:49:53.545Z,4.30
2018-12-27T09:52:22.478Z,4.30
2018-12-27T09:54:50.917Z,4.30
2018-12-27T09:57:18.387Z,4.30
2018-12-27T09:59:45.841Z,4.40
2018-12-27T10:02:13.296Z,4.40
2018-12-27T10:04:40.883Z,4.50
2018-12-27T10:07:08.440Z,4.40
2018-12-27T10:09:35.908Z,4.50
2018-12-27T10:12:04.759Z,4.50
2018-12-27T10:14:32.251Z,4.40
2018-12-27T10:16:59.720Z,4.60
2018-12-27T10:19:27.293Z,4.60
2018-12-27T10:21:54.848Z,4.60
2018-12-27T10:24:22.311Z,4.60
2018-12-27T10:26:50.597Z,4.60
2018-12-27T10:29:18.058Z,4.60
2018-12-27T10:31:46.486Z,4.60
2018-12-27T10:34:13.951Z,4.70
2018-12-27T10:36:41.442Z,4.70
2018-12-27T10:39:08.913Z,4.70
2018-12-27T10:41:36.390Z,4.70
2018-12-27T10:44:04.664Z,4.80
2018-12-27T10:46:32.229Z,4.80
2018-12-27T10:48:59.731Z,4.80
2018-12-27T10:51:27.198Z,4.80
2018-12-27T10:53:54.753Z,4.80
2018-12-27T10:56:22.904Z,4.80
2018-12-27T10:58:50.377Z,4.80
2018-12-27T11:01:18.622Z,4.80
2018-12-27T11:03:46.105Z,4.80
2018-12-27T11:06:13.593Z,4.90
2018-12-27T11:08:41.837Z,4.90
2018-12-27T11:11:09.313Z,4.90
2018-12-27T11:13:36.794Z,4.90
2018-12-27T11:16:05.014Z,4.90
2018-12-27T11:18:32.493Z,4.90
2018-12-27T11:20:59.966Z,4.90
2018-12-27T11:23:27.438Z,4.90
2018-12-27T11:25:54.897Z,4.90
2018-12-27T11:28:22.454Z,4.90
2018-12-27T11:30:49.949Z,4.90
2018-12-27T11:33:18.181Z,4.90
2018-12-27T11:35:45.668Z,4.90
2018-12-27T11:38:13.215Z,5.00
2018-12-27T11:40:40.700Z,5.00
2018-12-27T11:43:09.601Z,4.90
2018-12-27T11:45:35.701Z,5.00
2018-12-27T11:48:04.501Z,4.90
2018-12-27T11:50:32.069Z,4.90
2018-12-27T11:52:59.555Z,5.00
2018-12-27T11:55:27.024Z,5.00
2018-12-27T11:57:55.273Z,5.20
2018-12-27T12:00:22.779Z,5.20
2018-12-27T12:02:50.282Z,5.10
2018-12-27T12:05:17.736Z,5.10
2018-12-27T12:07:45.336Z,5.20
2018-12-27T12:10:13.575Z,5.20
2018-12-27T12:12:41.065Z,5.20
2018-12-27T12:15:08.529Z,5.20
2018-12-27T12:17:35.997Z,5.20
2018-12-27T12:20:04.346Z,5.30
2018-12-27T12:22:31.819Z,5.20
2018-12-27T12:24:59.278Z,5.30
2018-12-27T12:27:26.765Z,5.40
2018-12-27T12:29:54.332Z,5.30
2018-12-27T12:32:22.884Z,5.30
2018-12-27T12:34:50.354Z,5.30
2018-12-27T12:37:17.833Z,5.30
2018-12-27T12:39:46.077Z,5.40
2018-12-27T12:42:13.545Z,5.40
2018-12-27T12:44:41.134Z,5.40
2018-12-27T12:47:08.613Z,5.50
2018-12-27T12:49:36.091Z,5.40
2018-12-27T12:52:04.741Z,5.50
2018-12-27T12:54:32.994Z,5.40
2018-12-27T12:57:00.474Z,5.40
2018-12-27T12:59:27.947Z,5.40
2018-12-27T13:01:55.401Z,5.40
2018-12-27T13:04:22.875Z,5.40
2018-12-27T13:06:50.350Z,5.50
2018-12-27T13:09:17.798Z,5.40
2018-12-27T13:11:45.366Z,5.40
2018-12-27T13:14:12.835Z,5.40
2018-12-27T13:16:41.060Z,5.40
2018-12-27T13:19:08.533Z,5.40
2018-12-27T13:21:36.019Z,5.50
2018-12-27T13:24:04.588Z,5.50
2018-12-27T13:26:32.085Z,5.50
2018-12-27T13:28:59.657Z,5.50
2018-12-27T13:31:27.117Z,5.50
2018-12-27T13:33:54.666Z,5.50
2018-12-27T13:36:25.509Z,5.50
2018-12-27T13:38:50.396Z,5.60
2018-12-27T13:41:17.871Z,5.60
2018-12-27T13:43:45.345Z,5.60
2018-12-27T13:46:13.573Z,5.50
2018-12-27T13:48:41.090Z,5.50
2018-12-27T13:51:08.559Z,5.50
2018-12-27T13:53:36.061Z,5.50
2018-12-27T13:56:03.674Z,5.50
2018-12-27T13:58:31.936Z,5.60
2018-12-27T14:00:59.408Z,5.50
2018-12-27T14:03:26.866Z,5.50
2018-12-27T14:05:54.334Z,5.50
2018-12-27T14:08:21.801Z,5.50
2018-12-27T14:10:49.266Z,5.50
2018-12-27T14:13:17.580Z,5.50
2018-12-27T14:15:45.048Z,5.50
2018-12-27T14:18:12.520Z,5.50
2018-12-27T14:20:40.038Z,5.50
2018-12-27T14:23:07.589Z,5.50
2018-12-27T14:25:35.799Z,5.50
2018-12-27T14:28:04.756Z,5.50
2018-12-27T14:30:32.332Z,5.50
2018-12-27T14:32:59.791Z,5.50
2018-12-27T14:35:27.272Z,5.50
2018-12-27T14:37:55.498Z,5.40
2018-12-27T14:40:23.003Z,5.40
2018-12-27T14:42:50.559Z,5.40
2018-12-27T14:45:18.131Z,5.40
2018-12-27T14:47:45.579Z,5.30
2018-12-27T14:50:13.054Z,5.30
2018-12-27T14:52:41.325Z,5.30
2018-12-27T14:55:08.901Z,5.30
2018-12-27T14:57:36.373Z,5.30
2018-12-27T15:00:04.722Z,5.20
2018-12-27T15:02:32.195Z,5.10
2018-12-27T15:04:59.762Z,5.20
2018-12-27T15:07:27.236Z,5.20
2018-12-27T15:09:54.698Z,5.30
2018-12-27T15:12:22.234Z,5.20
2018-12-27T15:14:49.711Z,5.10
2018-12-27T15:17:18.025Z,5.10
2018-12-27T15:19:46.272Z,5.00
2018-12-27T15:22:13.823Z,5.00
2018-12-27T15:24:41.298Z,5.00
2018-12-27T15:27:08.863Z,5.00
2018-12-27T15:29:37.086Z,5.00
2018-12-27T15:32:04.568Z,5.00
2018-12-27T15:34:32.028Z,5.00
2018-12-27T15:36:59.489Z,5.00
2018-12-27T15:39:26.950Z,4.90
2018-12-27T15:41:54.413Z,4.90
2018-12-27T15:44:21.915Z,4.80
2018-12-27T15:46:49.382Z,4.80
2018-12-27T15:49:16.918Z,4.90
2018-12-27T15:51:44.376Z,5.00
2018-12-27T15:54:11.849Z,4.80
2018-12-27T15:56:39.322Z,4.80
2018-12-27T15:59:06.799Z,4.80
2018-12-27T16:01:35.073Z,4.90
2018-12-27T16:04:04.239Z,4.80
2018-12-27T16:06:31.712Z,4.80
2018-12-27T16:08:59.178Z,4.70
2018-12-27T16:11:27.384Z,4.70
2018-12-27T16:13:54.929Z,4.60
2018-12-27T16:16:22.498Z,4.60
2018-12-27T16:18:51.469Z,4.60
2018-12-27T16:21:18.939Z,4.60
2018-12-27T16:23:46.397Z,4.50
2018-12-27T16:26:13.876Z,4.50
2018-12-27T16:28:41.343Z,4.60
2018-12-27T16:31:08.804Z,4.50
2018-12-27T16:33:36.255Z,4.60
2018-12-27T16:36:04.746Z,4.70
2018-12-27T16:38:32.309Z,4.70
2018-12-27T16:41:01.184Z,4.50
2018-12-27T16:43:28.654Z,4.50
2018-12-27T16:45:56.139Z,4.40
2018-12-27T16:48:24.411Z,4.50
2018-12-27T16:50:51.881Z,4.40
2018-12-27T16:53:20.321Z,4.50
2018-12-27T16:55:47.823Z,4.40
2018-12-27T16:58:15.400Z,4.50
2018-12-27T17:00:42.873Z,4.40
2018-12-27T17:03:11.133Z,4.30
2018-12-27T17:05:38.647Z,4.30
2018-12-27T17:08:06.096Z,4.30
2018-12-27T17:10:33.570Z,4.30
2018-12-27T17:13:01.073Z,4.30
2018-12-27T17:15:28.647Z,4.30
2018-12-27T17:17:56.120Z,4.30
2018-12-27T17:20:23.678Z,4.30
2018-12-27T17:22:51.130Z,4.30
2018-12-27T17:25:18.682Z,4.20
2018-12-27T17:27:46.151Z,4.20
2018-12-27T17:30:13.713Z,4.20
2018-12-27T17:32:41.285Z,4.20
2018-12-27T17:35:08.762Z,4.20
2018-12-27T17:37:36.243Z,4.10
2018-12-27T17:40:04.475Z,4.10
2018-12-27T17:42:31.940Z,4.10
2018-12-27T17:44:59.505Z,4.10
2018-12-27T17:47:27.069Z,4.10
2018-12-27T17:49:54.694Z,4.00
2018-12-27T17:52:22.206Z,4.00
2018-12-27T17:54:49.797Z,4.00
2018-12-27T17:57:18.053Z,3.90
2018-12-27T17:59:47.025Z,3.90
2018-12-27T18:02:14.521Z,3.90
2018-12-27T18:04:42.078Z,4.00
2018-12-27T18:07:09.639Z,4.00
2018-12-27T18:09:37.871Z,3.90
2018-12-27T18:12:05.359Z,3.90
2018-12-27T18:14:32.841Z,3.90
2018-12-27T18:17:00.411Z,3.90
2018-12-27T18:19:27.961Z,3.90
2018-12-27T18:21:55.357Z,4.00
2018-12-27T18:24:23.835Z,3.90
2018-12-27T18:26:52.091Z,3.90
2018-12-27T18:29:19.675Z,3.90
2018-12-27T18:31:47.188Z,4.00
2018-12-27T18:34:14.664Z,3.90
2018-12-27T18:36:42.242Z,3.90
2018-12-27T18:39:09.826Z,4.00
2018-12-27T18:41:37.292Z,3.90
2018-12-27T18:44:04.762Z,4.00
2018-12-27T18:46:33.002Z,4.00
2018-12-27T18:49:00.493Z,4.00
2018-12-27T18:51:27.991Z,4.00
2018-12-27T18:53:55.512Z,4.00
2018-12-27T18:56:22.917Z,4.00
2018-12-27T18:58:50.383Z,4.00
2018-12-27T19:01:17.847Z,4.30
2018-12-27T19:03:45.322Z,4.10
2018-12-27T19:06:12.792Z,4.00
2018-12-27T19:08:41.029Z,4.00
2018-12-27T19:11:21.268Z,3.90
2018-12-27T19:13:49.511Z,3.70
2018-12-27T19:16:17.102Z,3.70
2018-12-27T19:18:44.658Z,3.70
2018-12-27T19:21:12.184Z,3.60
2018-12-27T19:23:39.676Z,3.60
2018-12-27T19:26:07.156Z,3.50
2018-12-27T19:28:34.618Z,3.50
2018-12-27T19:31:02.164Z,3.50
2018-12-27T19:33:29.635Z,3.40
2018-12-27T19:35:57.098Z,3.40
2018-12-27T19:38:24.566Z,3.40
2018-12-27T19:40:52.025Z,3.30
2018-12-27T19:43:19.578Z,3.30
2018-12-27T19:45:47.159Z,3.30
2018-12-27T19:48:14.619Z,3.40
2018-12-27T19:50:42.169Z,3.20
2018-12-27T19:53:09.634Z,3.30
2018-12-27T19:55:37.105Z,3.30
2018-12-27T19:58:06.080Z,3.30
2018-12-27T20:00:33.547Z,3.30
2018-12-27T20:03:01.539Z,3.10
2018-12-27T20:05:29.061Z,3.30
2018-12-27T20:07:59.483Z,3.20
2018-12-27T20:10:24.110Z,3.00
2018-12-27T20:12:51.676Z,3.20
2018-12-27T20:15:19.270Z,3.20
2018-12-27T20:17:47.508Z,3.10
2018-12-27T20:20:14.960Z,3.10
2018-12-27T20:22:42.449Z,3.20
2018-12-27T20:25:10.317Z,3.00
2018-12-27T20:27:37.801Z,3.00
2018-12-27T20:30:06.057Z,2.90
2018-12-27T20:32:33.587Z,2.90
2018-12-27T20:35:01.140Z,3.00
2018-12-27T20:37:28.610Z,3.10
2018-12-27T20:39:56.108Z,2.90
2018-12-27T20:42:23.563Z,2.90
2018-12-27T20:44:51.037Z,2.80
2018-12-27T20:47:19.306Z,2.90
2018-12-27T20:49:46.764Z,2.90
2018-12-27T20:52:14.336Z,3.00
2018-12-27T20:54:41.813Z,3.00
2018-12-27T20:57:09.271Z,2.90
2018-12-27T20:59:36.844Z,2.90
2018-12-27T21:02:04.398Z,2.80
2018-12-27T21:04:33.369Z,2.70
2018-12-27T21:07:00.925Z,2.70
2018-12-27T21:09:28.392Z,2.70
2018-12-27T21:11:55.858Z,2.80
2018-12-27T21:14:23.350Z,2.80
2018-12-27T21:16:50.817Z,2.60
2018-12-27T21:19:19.079Z,2.60
2018-12-27T21:21:46.649Z,2.60
2018-12-27T21:24:14.104Z,2.70
2018-12-27T21:26:41.569Z,2.80
2018-12-27T21:29:10.551Z,2.90
2018-12-27T21:31:38.030Z,2.90
2018-12-27T21:34:05.582Z,2.90
2018-12-27T21:36:33.146Z,2.90
2018-12-27T21:39:00.615Z,2.80
2018-12-27T21:41:28.190Z,2.80
2018-12-27T21:43:55.660Z,2.90
2018-12-27T21:46:23.939Z,2.80
2018-12-27T21:48:51.410Z,2.70
2018-12-27T21:51:19.637Z,2.70
2018-12-27T21:53:47.113Z,2.70
2018-12-27T21:56:14.690Z,2.80
2018-12-27T21:58:42.922Z,2.90
2018-12-27T22:01:10.442Z,2.90
2018-12-27T22:03:37.941Z,2.80
2018-12-27T22:06:05.461Z,2.90
2018-12-27T22:08:32.937Z,2.90
2018-12-27T22:11:00.402Z,2.80
2018-12-27T22:13:28.655Z,2.80
2018-12-27T22:15:56.222Z,2.80
2018-12-27T22:18:23.802Z,2.80
2018-12-27T22:20:51.352Z,2.80
2018-12-27T22:23:18.822Z,2.90
2018-12-27T22:25:47.046Z,2.80
2018-12-27T22:28:14.510Z,2.80
2018-12-27T22:30:41.990Z,2.90
2018-12-27T22:33:09.450Z,2.90
2018-12-27T22:35:36.939Z,2.70
2018-12-27T22:38:04.416Z,2.50
2018-12-27T22:40:31.959Z,2.40
2018-12-27T22:42:59.533Z,2.40
2018-12-27T22:45:27.009Z,2.30
2018-12-27T22:47:54.461Z,2.50
2018-12-27T22:50:21.921Z,2.40
2018-12-27T22:52:49.472Z,2.50
2018-12-27T22:55:16.932Z,2.50
2018-12-27T22:57:44.501Z,2.70
2018-12-27T23:00:12.601Z,2.60
2018-12-27T23:02:40.054Z,2.60
2018-12-27T23:05:07.611Z,2.60
2018-12-27T23:07:35.166Z,2.70
2018-12-27T23:10:03.550Z,2.60
2018-12-27T23:12:31.101Z,2.60
2018-12-27T23:14:58.694Z,2.70
2018-12-27T23:17:26.237Z,2.70
2018-12-27T23:19:53.702Z,2.80
2018-12-27T23:22:21.161Z,2.80
2018-12-27T23:24:48.730Z,2.80
2018-12-27T23:27:16.292Z,2.80
2018-12-27T23:29:43.763Z,2.90
2018-12-27T23:32:11.320Z,2.80
2018-12-27T23:34:38.817Z,2.80
2018-12-27T23:37:07.076Z,3.00
2018-12-27T23:39:36.115Z,3.00
2018-12-27T23:42:04.821Z,3.00
2018-12-27T23:44:32.299Z,3.00
2018-12-27T23:46:59.882Z,3.00
2018-12-27T23:49:27.440Z,3.10
2018-12-27T23:51:55.003Z,3.20
2018-12-27T23:54:22.583Z,3.20
2018-12-27T23:56:50.849Z,3.20
2018-12-27T23:59:18.322Z,3.20
